Laurel, MT

5:03 AM MDT on October 01, 2014 (GMT -0600)
NonFedAWOS LAURELMUNC MT US SUPERAWOS | Change Station
CLOSE
Current Station
Personal Weather Station
Location: Laurel, MT
Elevation: 3517 ft
Nearby Weather Stations

Elev 3517 ft 45.70 °N, 108.76 °W | Updated 48 minutes ago

Overcast
Overcast
46.0 °F
Feels Like 46.0 °F
N
0.0
Wind Variable Wind from North

Today
High -- | Low -- °F
--% Chance of Precip.
Yesterday
High -- | Low -- °F
Precip. -- in
7:13 AM 6:55 PM
Waxing Crescent, 46% visible
Pressure 29.89 in
Visibility 10.0 miles
Clouds Mostly Cloudy 4200 ft
Overcast 4900 ft
Dew Point 36.0 °F
Humidity 65%
Rainfall -999.00 in
Snow Depth 1 in , 0 in , 0 in
UV 0 out of 12
Pollen 3.90 out of 12
Air Quality Not available.
Flu Activity Not available.
METAR KCOD 011035Z AUTO 00000KT 10SM BKN042 OVC049 07/06 A2989 RMK AO1

More Conditions Fewer Conditions

Pressure 29.89 in
Visibility 10.0 miles
Clouds Mostly Cloudy 4200 ft
Overcast 4900 ft
Dew Point 36.0 °F
Humidity 65%
Rainfall -999.00 in
Snow Depth 1 in , 0 in , 0 in
UV 0 out of 12
Pollen 3.90 out of 12
Air Quality Not available.
Flu Activity Not available.
METAR KCOD 011035Z AUTO 00000KT 10SM BKN042 OVC049 07/06 A2989 RMK AO1

More Conditions Fewer Conditions

10-Day Weather Forecast

Almanac

Astronomy

Oct. 01, 2014 Rise Set
Actual Time 7:13 AM MDT 6:55 PM MDT
Civil Twilight 6:43 AM MDT 7:24 PM MDT
Nautical Twilight 6:09 AM MDT 7:59 PM MDT
Astronomical Twilight 5:34 AM MDT 8:34 PM MDT
Moon 2:30 PM MDT No Moon Set
Length of Visible Light 12h 40m
Length of Day
11h 41m
Tomorrow will be 3m 12s shorter.
Waxing Crescent, 46% of the Moon is Illuminated
Today
Waxing Crescent
Oct 1
First Quarter
Oct 8
Full
Oct 15
Last Quarter
Oct 23
New

Today's Extremes

State Highs State Lows

Community

WunderPhotos

Upload Photos

1,757,910 photos uploaded!

WunderBlogs® & News

Nearby

Snow Depth

Station Depth Elevation
Nez Perce Camp 0 in 5650 ft
Burnt Mountain 1 in 5880 ft
Darkhorse Lake 1 in 8700 ft
Copper Camp 0 in 6950 ft
Carrot Basin 1 in 9000 ft

Earthquake Activity

City Distance Mag. Time & Date
No recent earthquake activity has been reported nearby.
Minimum magnitude displayed is 2.5.

Coastal Water Temperatures

Place Temperature
No Stations Reporting

Nearby Weather Stations